Pleak, Texas
Current Conditions -  °F | °C
As of 1:53 PM on Sunday 21 Dec 2014 (Local Time) from KSGR Reporting Station
Overcast Overcast  
Wind Chill: 60°   Ceiling: 8000
Heat Index: 60°   Visibility: 10mi
Dew Point: 49°   Wind: 3mph
Humidity: 67%   Direction: 100°E
Pressure: 29.99"   Gusts: NA
Location:  29.4892°N, 95.6914°W
Report Text: KSGR 211953Z 10003KT 10SM OVC080 16/09 A2999 RMK AO2 SLP157 T01560094
Loading
Personal Weather Stations






























Interactive Weather Map New forecast layout! Learn more

10-Day Weather Forecast

Advertisements
Track Severe Weather on mobile